sensor_id;sensor_type;location;lat;lon;timestamp;P1;durP1;ratioP1;P2;durP2;ratioP2
24147;SDS011;12309;51.450;-2.624;2023-11-21T00:02:02;4.23;;;0.50;;
24147;SDS011;12309;51.450;-2.624;2023-11-21T00:04:29;2.27;;;0.43;;
24147;SDS011;12309;51.450;-2.624;2023-11-21T00:06:55;2.50;;;0.60;;
24147;SDS011;12309;51.450;-2.624;2023-11-21T00:09:20;3.80;;;0.40;;
24147;SDS011;12309;51.450;-2.624;2023-11-21T00:11:46;2.30;;;0.40;;
24147;SDS011;12309;51.450;-2.624;2023-11-21T00:14:12;3.23;;;0.57;;
24147;SDS011;12309;51.450;-2.624;2023-11-21T00:16:40;4.90;;;0.67;;
24147;SDS011;12309;51.450;-2.624;2023-11-21T00:19:06;2.03;;;0.50;;
24147;SDS011;12309;51.450;-2.624;2023-11-21T00:21:31;2.17;;;0.43;;
24147;SDS011;12309;51.450;-2.624;2023-11-21T00:23:57;3.97;;;0.53;;
24147;SDS011;12309;51.450;-2.624;2023-11-21T00:26:23;4.53;;;0.47;;
24147;SDS011;12309;51.450;-2.624;2023-11-21T00:28:49;2.13;;;0.40;;
24147;SDS011;12309;51.450;-2.624;2023-11-21T00:31:15;2.20;;;0.50;;
24147;SDS011;12309;51.450;-2.624;2023-11-21T00:33:41;2.43;;;0.50;;
24147;SDS011;12309;51.450;-2.624;2023-11-21T00:36:08;4.23;;;0.50;;
24147;SDS011;12309;51.450;-2.624;2023-11-21T00:38:35;3.40;;;0.40;;
24147;SDS011;12309;51.450;-2.624;2023-11-21T00:41:01;6.37;;;0.47;;
24147;SDS011;12309;51.450;-2.624;2023-11-21T00:43:27;2.23;;;0.30;;
24147;SDS011;12309;51.450;-2.624;2023-11-21T00:45:53;4.50;;;0.50;;
24147;SDS011;12309;51.450;-2.624;2023-11-21T00:48:19;6.30;;;0.50;;
24147;SDS011;12309;51.450;-2.624;2023-11-21T00:50:44;2.63;;;0.30;;
24147;SDS011;12309;51.450;-2.624;2023-11-21T00:53:10;2.77;;;0.40;;
24147;SDS011;12309;51.450;-2.624;2023-11-21T00:55:36;2.20;;;0.37;;
24147;SDS011;12309;51.450;-2.624;2023-11-21T00:58:03;2.07;;;0.37;;
24147;SDS011;12309;51.450;-2.624;2023-11-21T01:00:29;3.27;;;0.73;;
24147;SDS011;12309;51.450;-2.624;2023-11-21T01:02:55;2.50;;;0.40;;
24147;SDS011;12309;51.450;-2.624;2023-11-21T01:05:21;2.57;;;0.40;;
24147;SDS011;12309;51.450;-2.624;2023-11-21T01:07:46;1.87;;;0.53;;
24147;SDS011;12309;51.450;-2.624;2023-11-21T01:10:12;6.57;;;0.40;;
24147;SDS011;12309;51.450;-2.624;2023-11-21T01:12:38;4.80;;;0.60;;
24147;SDS011;12309;51.450;-2.624;2023-11-21T01:15:04;4.77;;;0.63;;
24147;SDS011;12309;51.450;-2.624;2023-11-21T01:17:33;4.07;;;0.40;;
24147;SDS011;12309;51.450;-2.624;2023-11-21T01:20:00;4.17;;;0.50;;
24147;SDS011;12309;51.450;-2.624;2023-11-21T01:22:26;2.30;;;0.70;;
24147;SDS011;12309;51.450;-2.624;2023-11-21T01:24:53;2.77;;;0.33;;
24147;SDS011;12309;51.450;-2.624;2023-11-21T01:27:19;2.60;;;0.50;;
24147;SDS011;12309;51.450;-2.624;2023-11-21T01:29:45;1.83;;;0.40;;
24147;SDS011;12309;51.450;-2.624;2023-11-21T01:32:10;5.03;;;0.60;;
24147;SDS011;12309;51.450;-2.624;2023-11-21T01:34:36;2.53;;;0.40;;
24147;SDS011;12309;51.450;-2.624;2023-11-21T01:37:02;3.87;;;1.10;;
24147;SDS011;12309;51.450;-2.624;2023-11-21T01:39:30;3.17;;;0.63;;
24147;SDS011;12309;51.450;-2.624;2023-11-21T01:41:56;3.37;;;0.73;;
24147;SDS011;12309;51.450;-2.624;2023-11-21T01:44:23;1.77;;;0.43;;
24147;SDS011;12309;51.450;-2.624;2023-11-21T01:46:49;3.17;;;0.53;;
24147;SDS011;12309;51.450;-2.624;2023-11-21T01:49:16;2.40;;;0.50;;
24147;SDS011;12309;51.450;-2.624;2023-11-21T01:51:44;2.97;;;0.47;;
24147;SDS011;12309;51.450;-2.624;2023-11-21T01:54:12;1.07;;;0.30;;
24147;SDS011;12309;51.450;-2.624;2023-11-21T01:56:38;3.20;;;0.50;;
24147;SDS011;12309;51.450;-2.624;2023-11-21T01:59:04;4.63;;;0.50;;
24147;SDS011;12309;51.450;-2.624;2023-11-21T02:01:32;2.50;;;0.50;;
24147;SDS011;12309;51.450;-2.624;2023-11-21T02:03:59;2.90;;;0.40;;
24147;SDS011;12309;51.450;-2.624;2023-11-21T02:06:24;4.10;;;0.60;;
24147;SDS011;12309;51.450;-2.624;2023-11-21T02:08:50;2.83;;;0.40;;
24147;SDS011;12309;51.450;-2.624;2023-11-21T02:11:16;3.10;;;0.50;;
24147;SDS011;12309;51.450;-2.624;2023-11-21T02:13:44;3.50;;;0.70;;
24147;SDS011;12309;51.450;-2.624;2023-11-21T02:16:10;2.17;;;0.50;;
24147;SDS011;12309;51.450;-2.624;2023-11-21T02:18:38;2.77;;;0.70;;
24147;SDS011;12309;51.450;-2.624;2023-11-21T02:21:04;1.60;;;0.60;;
24147;SDS011;12309;51.450;-2.624;2023-11-21T02:23:30;3.47;;;0.53;;
24147;SDS011;12309;51.450;-2.624;2023-11-21T02:25:56;1.70;;;0.70;;
24147;SDS011;12309;51.450;-2.624;2023-11-21T02:28:21;2.27;;;0.30;;
24147;SDS011;12309;51.450;-2.624;2023-11-21T02:30:51;3.63;;;0.53;;
24147;SDS011;12309;51.450;-2.624;2023-11-21T02:33:21;2.33;;;0.33;;
24147;SDS011;12309;51.450;-2.624;2023-11-21T02:35:47;1.03;;;0.23;;
24147;SDS011;12309;51.450;-2.624;2023-11-21T02:38:12;2.43;;;0.30;;
24147;SDS011;12309;51.450;-2.624;2023-11-21T02:40:38;1.53;;;0.30;;
24147;SDS011;12309;51.450;-2.624;2023-11-21T02:43:04;1.30;;;0.30;;
24147;SDS011;12309;51.450;-2.624;2023-11-21T02:45:30;2.13;;;0.50;;
24147;SDS011;12309;51.450;-2.624;2023-11-21T02:47:57;2.03;;;0.50;;
24147;SDS011;12309;51.450;-2.624;2023-11-21T02:50:23;2.20;;;0.33;;
24147;SDS011;12309;51.450;-2.624;2023-11-21T02:52:50;1.07;;;0.40;;
24147;SDS011;12309;51.450;-2.624;2023-11-21T02:55:16;3.20;;;0.40;;
24147;SDS011;12309;51.450;-2.624;2023-11-21T02:57:41;2.20;;;0.40;;
24147;SDS011;12309;51.450;-2.624;2023-11-21T03:00:07;0.33;;;0.27;;
24147;SDS011;12309;51.450;-2.624;2023-11-21T03:02:35;1.93;;;0.30;;
24147;SDS011;12309;51.450;-2.624;2023-11-21T03:05:04;1.73;;;0.47;;
24147;SDS011;12309;51.450;-2.624;2023-11-21T03:07:31;2.67;;;0.40;;
24147;SDS011;12309;51.450;-2.624;2023-11-21T03:09:57;1.77;;;0.60;;
24147;SDS011;12309;51.450;-2.624;2023-11-21T03:12:22;1.50;;;0.50;;
24147;SDS011;12309;51.450;-2.624;2023-11-21T03:14:48;1.53;;;0.60;;
24147;SDS011;12309;51.450;-2.624;2023-11-21T03:17:13;2.50;;;0.50;;
24147;SDS011;12309;51.450;-2.624;2023-11-21T03:19:41;0.73;;;0.50;;
24147;SDS011;12309;51.450;-2.624;2023-11-21T03:22:07;2.67;;;0.70;;
24147;SDS011;12309;51.450;-2.624;2023-11-21T03:24:33;2.30;;;0.70;;
24147;SDS011;12309;51.450;-2.624;2023-11-21T03:26:59;5.23;;;0.60;;
24147;SDS011;12309;51.450;-2.624;2023-11-21T03:29:25;4.23;;;0.60;;
24147;SDS011;12309;51.450;-2.624;2023-11-21T03:31:51;6.30;;;0.70;;
24147;SDS011;12309;51.450;-2.624;2023-11-21T03:34:22;4.17;;;0.63;;
24147;SDS011;12309;51.450;-2.624;2023-11-21T03:36:51;1.20;;;0.80;;
24147;SDS011;12309;51.450;-2.624;2023-11-21T03:39:17;2.20;;;0.87;;
24147;SDS011;12309;51.450;-2.624;2023-11-21T03:41:43;2.07;;;0.93;;
24147;SDS011;12309;51.450;-2.624;2023-11-21T03:44:10;3.10;;;1.23;;
24147;SDS011;12309;51.450;-2.624;2023-11-21T03:46:35;2.83;;;1.40;;
24147;SDS011;12309;51.450;-2.624;2023-11-21T03:49:01;2.73;;;1.53;;
24147;SDS011;12309;51.450;-2.624;2023-11-21T03:51:27;3.03;;;1.53;;
24147;SDS011;12309;51.450;-2.624;2023-11-21T03:53:52;2.87;;;1.70;;
24147;SDS011;12309;51.450;-2.624;2023-11-21T03:56:18;2.13;;;1.70;;
24147;SDS011;12309;51.450;-2.624;2023-11-21T03:58:47;3.30;;;2.07;;
24147;SDS011;12309;51.450;-2.624;2023-11-21T04:01:23;2.00;;;1.80;;
24147;SDS011;12309;51.450;-2.624;2023-11-21T04:03:49;2.37;;;1.70;;
24147;SDS011;12309;51.450;-2.624;2023-11-21T04:06:16;3.17;;;1.77;;
24147;SDS011;12309;51.450;-2.624;2023-11-21T04:08:43;2.10;;;1.77;;
24147;SDS011;12309;51.450;-2.624;2023-11-21T04:11:09;2.17;;;1.70;;
24147;SDS011;12309;51.450;-2.624;2023-11-21T04:13:39;2.23;;;2.03;;
24147;SDS011;12309;51.450;-2.624;2023-11-21T04:16:06;3.27;;;2.13;;
24147;SDS011;12309;51.450;-2.624;2023-11-21T04:18:34;2.00;;;1.80;;
24147;SDS011;12309;51.450;-2.624;2023-11-21T04:21:01;3.30;;;2.10;;
24147;SDS011;12309;51.450;-2.624;2023-11-21T04:23:28;2.77;;;2.30;;
24147;SDS011;12309;51.450;-2.624;2023-11-21T04:25:55;3.83;;;1.90;;
24147;SDS011;12309;51.450;-2.624;2023-11-21T04:28:22;2.27;;;1.53;;
24147;SDS011;12309;51.450;-2.624;2023-11-21T04:30:49;1.77;;;1.57;;
24147;SDS011;12309;51.450;-2.624;2023-11-21T04:33:15;2.37;;;1.10;;
24147;SDS011;12309;51.450;-2.624;2023-11-21T04:35:41;1.50;;;1.37;;
24147;SDS011;12309;51.450;-2.624;2023-11-21T04:38:07;1.73;;;1.10;;
24147;SDS011;12309;51.450;-2.624;2023-11-21T04:40:32;1.20;;;1.03;;
24147;SDS011;12309;51.450;-2.624;2023-11-21T04:42:58;1.10;;;1.00;;
24147;SDS011;12309;51.450;-2.624;2023-11-21T04:45:23;2.13;;;0.90;;
24147;SDS011;12309;51.450;-2.624;2023-11-21T04:47:49;1.00;;;0.70;;
24147;SDS011;12309;51.450;-2.624;2023-11-21T04:50:15;0.60;;;0.60;;
24147;SDS011;12309;51.450;-2.624;2023-11-21T04:52:41;0.70;;;0.50;;
24147;SDS011;12309;51.450;-2.624;2023-11-21T04:55:06;1.20;;;0.80;;
24147;SDS011;12309;51.450;-2.624;2023-11-21T04:57:35;1.53;;;0.67;;
24147;SDS011;12309;51.450;-2.624;2023-11-21T05:00:01;1.03;;;0.60;;
24147;SDS011;12309;51.450;-2.624;2023-11-21T05:02:30;0.70;;;0.70;;
24147;SDS011;12309;51.450;-2.624;2023-11-21T05:05:03;2.77;;;0.67;;
24147;SDS011;12309;51.450;-2.624;2023-11-21T05:07:30;0.57;;;0.57;;
24147;SDS011;12309;51.450;-2.624;2023-11-21T05:09:57;2.53;;;0.60;;
24147;SDS011;12309;51.450;-2.624;2023-11-21T05:12:23;0.40;;;0.40;;
24147;SDS011;12309;51.450;-2.624;2023-11-21T05:14:50;0.90;;;0.30;;
24147;SDS011;12309;51.450;-2.624;2023-11-21T05:17:15;0.70;;;0.43;;
24147;SDS011;12309;51.450;-2.624;2023-11-21T05:19:41;0.40;;;0.40;;
24147;SDS011;12309;51.450;-2.624;2023-11-21T05:22:08;1.30;;;0.50;;
24147;SDS011;12309;51.450;-2.624;2023-11-21T05:24:33;1.53;;;0.40;;
24147;SDS011;12309;51.450;-2.624;2023-11-21T05:27:00;1.53;;;0.43;;
24147;SDS011;12309;51.450;-2.624;2023-11-21T05:29:25;2.70;;;0.40;;
24147;SDS011;12309;51.450;-2.624;2023-11-21T05:31:52;0.73;;;0.33;;
24147;SDS011;12309;51.450;-2.624;2023-11-21T05:34:18;1.20;;;0.30;;
24147;SDS011;12309;51.450;-2.624;2023-11-21T05:36:43;1.40;;;0.50;;
24147;SDS011;12309;51.450;-2.624;2023-11-21T05:39:10;0.50;;;0.30;;
24147;SDS011;12309;51.450;-2.624;2023-11-21T05:41:37;0.33;;;0.30;;
24147;SDS011;12309;51.450;-2.624;2023-11-21T05:44:03;1.03;;;0.23;;
24147;SDS011;12309;51.450;-2.624;2023-11-21T05:46:28;0.60;;;0.30;;
24147;SDS011;12309;51.450;-2.624;2023-11-21T05:48:54;0.67;;;0.30;;
24147;SDS011;12309;51.450;-2.624;2023-11-21T05:51:20;0.30;;;0.20;;
24147;SDS011;12309;51.450;-2.624;2023-11-21T05:53:45;0.90;;;0.50;;
24147;SDS011;12309;51.450;-2.624;2023-11-21T05:56:11;0.70;;;0.30;;
24147;SDS011;12309;51.450;-2.624;2023-11-21T05:58:38;1.50;;;0.30;;
24147;SDS011;12309;51.450;-2.624;2023-11-21T06:01:05;1.63;;;0.33;;
24147;SDS011;12309;51.450;-2.624;2023-11-21T06:03:37;1.83;;;0.30;;
24147;SDS011;12309;51.450;-2.624;2023-11-21T06:06:03;1.33;;;0.47;;
24147;SDS011;12309;51.450;-2.624;2023-11-21T06:08:29;1.67;;;0.40;;
24147;SDS011;12309;51.450;-2.624;2023-11-21T06:10:55;1.17;;;0.40;;
24147;SDS011;12309;51.450;-2.624;2023-11-21T06:13:21;3.73;;;0.60;;
24147;SDS011;12309;51.450;-2.624;2023-11-21T06:15:49;2.07;;;0.37;;
24147;SDS011;12309;51.450;-2.624;2023-11-21T06:18:15;1.63;;;0.33;;
24147;SDS011;12309;51.450;-2.624;2023-11-21T06:20:41;3.60;;;0.30;;
24147;SDS011;12309;51.450;-2.624;2023-11-21T06:23:06;1.40;;;0.37;;
24147;SDS011;12309;51.450;-2.624;2023-11-21T06:25:32;1.50;;;0.40;;
24147;SDS011;12309;51.450;-2.624;2023-11-21T06:28:01;2.23;;;0.40;;
24147;SDS011;12309;51.450;-2.624;2023-11-21T06:30:27;1.97;;;0.60;;
24147;SDS011;12309;51.450;-2.624;2023-11-21T06:32:54;3.60;;;0.30;;
24147;SDS011;12309;51.450;-2.624;2023-11-21T06:35:21;1.70;;;0.40;;
24147;SDS011;12309;51.450;-2.624;2023-11-21T06:37:47;0.33;;;0.30;;
24147;SDS011;12309;51.450;-2.624;2023-11-21T06:40:13;0.43;;;0.40;;
24147;SDS011;12309;51.450;-2.624;2023-11-21T06:42:40;0.83;;;0.40;;
24147;SDS011;12309;51.450;-2.624;2023-11-21T06:45:06;0.60;;;0.30;;
24147;SDS011;12309;51.450;-2.624;2023-11-21T06:47:32;1.53;;;0.50;;
24147;SDS011;12309;51.450;-2.624;2023-11-21T06:49:58;0.50;;;0.33;;
24147;SDS011;12309;51.450;-2.624;2023-11-21T06:52:25;2.27;;;0.40;;
24147;SDS011;12309;51.450;-2.624;2023-11-21T06:54:51;2.73;;;0.40;;
24147;SDS011;12309;51.450;-2.624;2023-11-21T06:57:17;0.93;;;0.40;;
24147;SDS011;12309;51.450;-2.624;2023-11-21T06:59:42;3.77;;;0.40;;
24147;SDS011;12309;51.450;-2.624;2023-11-21T07:02:08;1.37;;;0.57;;
24147;SDS011;12309;51.450;-2.624;2023-11-21T07:04:34;0.20;;;0.20;;
24147;SDS011;12309;51.450;-2.624;2023-11-21T07:07:01;1.73;;;0.40;;
24147;SDS011;12309;51.450;-2.624;2023-11-21T07:09:27;1.80;;;0.40;;
24147;SDS011;12309;51.450;-2.624;2023-11-21T07:11:53;3.43;;;0.40;;
24147;SDS011;12309;51.450;-2.624;2023-11-21T07:14:20;1.47;;;0.30;;
24147;SDS011;12309;51.450;-2.624;2023-11-21T07:16:46;1.27;;;0.20;;
24147;SDS011;12309;51.450;-2.624;2023-11-21T07:19:12;0.77;;;0.40;;
24147;SDS011;12309;51.450;-2.624;2023-11-21T07:21:38;1.27;;;0.37;;
24147;SDS011;12309;51.450;-2.624;2023-11-21T07:24:04;2.23;;;0.30;;
24147;SDS011;12309;51.450;-2.624;2023-11-21T07:26:31;1.73;;;0.30;;
24147;SDS011;12309;51.450;-2.624;2023-11-21T07:28:58;1.13;;;0.33;;
24147;SDS011;12309;51.450;-2.624;2023-11-21T07:31:24;0.93;;;0.30;;
24147;SDS011;12309;51.450;-2.624;2023-11-21T07:33:50;1.80;;;0.30;;
24147;SDS011;12309;51.450;-2.624;2023-11-21T07:36:16;1.03;;;0.27;;
24147;SDS011;12309;51.450;-2.624;2023-11-21T07:38:48;0.73;;;0.23;;
24147;SDS011;12309;51.450;-2.624;2023-11-21T07:41:14;0.80;;;0.30;;
24147;SDS011;12309;51.450;-2.624;2023-11-21T07:43:40;0.90;;;0.30;;
24147;SDS011;12309;51.450;-2.624;2023-11-21T07:46:10;1.97;;;1.27;;
24147;SDS011;12309;51.450;-2.624;2023-11-21T07:48:37;0.60;;;0.40;;
24147;SDS011;12309;51.450;-2.624;2023-11-21T07:51:03;2.60;;;0.53;;
24147;SDS011;12309;51.450;-2.624;2023-11-21T07:53:29;0.47;;;0.27;;
24147;SDS011;12309;51.450;-2.624;2023-11-21T07:55:58;4.13;;;0.33;;
24147;SDS011;12309;51.450;-2.624;2023-11-21T07:58:32;0.87;;;0.13;;
24147;SDS011;12309;51.450;-2.624;2023-11-21T08:00:59;0.73;;;0.20;;
24147;SDS011;12309;51.450;-2.624;2023-11-21T08:03:25;1.00;;;0.30;;
24147;SDS011;12309;51.450;-2.624;2023-11-21T08:05:51;0.77;;;0.23;;
24147;SDS011;12309;51.450;-2.624;2023-11-21T08:08:17;1.37;;;0.20;;
24147;SDS011;12309;51.450;-2.624;2023-11-21T08:10:44;0.70;;;0.20;;
24147;SDS011;12309;51.450;-2.624;2023-11-21T08:13:21;1.73;;;0.40;;
24147;SDS011;12309;51.450;-2.624;2023-11-21T08:15:47;2.13;;;0.30;;
24147;SDS011;12309;51.450;-2.624;2023-11-21T08:18:13;3.53;;;0.27;;
24147;SDS011;12309;51.450;-2.624;2023-11-21T08:20:39;0.77;;;0.30;;
24147;SDS011;12309;51.450;-2.624;2023-11-21T08:23:05;3.17;;;0.93;;
24147;SDS011;12309;51.450;-2.624;2023-11-21T08:25:31;1.90;;;0.37;;
24147;SDS011;12309;51.450;-2.624;2023-11-21T08:27:58;0.90;;;0.20;;
24147;SDS011;12309;51.450;-2.624;2023-11-21T08:30:24;0.70;;;0.30;;
24147;SDS011;12309;51.450;-2.624;2023-11-21T08:32:50;3.60;;;0.33;;
24147;SDS011;12309;51.450;-2.624;2023-11-21T08:35:18;1.43;;;0.20;;
24147;SDS011;12309;51.450;-2.624;2023-11-21T08:37:44;1.37;;;0.20;;
24147;SDS011;12309;51.450;-2.624;2023-11-21T08:40:11;1.07;;;0.30;;
24147;SDS011;12309;51.450;-2.624;2023-11-21T08:42:41;2.40;;;0.30;;
24147;SDS011;12309;51.450;-2.624;2023-11-21T08:45:07;1.87;;;0.20;;
24147;SDS011;12309;51.450;-2.624;2023-11-21T08:47:34;3.27;;;0.37;;
24147;SDS011;12309;51.450;-2.624;2023-11-21T08:50:01;0.63;;;0.20;;
24147;SDS011;12309;51.450;-2.624;2023-11-21T08:52:27;1.90;;;0.40;;
24147;SDS011;12309;51.450;-2.624;2023-11-21T08:54:53;3.60;;;0.50;;
24147;SDS011;12309;51.450;-2.624;2023-11-21T08:57:23;2.77;;;0.30;;
24147;SDS011;12309;51.450;-2.624;2023-11-21T08:59:49;1.50;;;0.33;;
24147;SDS011;12309;51.450;-2.624;2023-11-21T09:02:21;1.77;;;0.33;;
24147;SDS011;12309;51.450;-2.624;2023-11-21T09:04:48;1.90;;;0.50;;
24147;SDS011;12309;51.450;-2.624;2023-11-21T09:07:15;1.53;;;0.40;;
24147;SDS011;12309;51.450;-2.624;2023-11-21T09:09:41;1.30;;;0.20;;
24147;SDS011;12309;51.450;-2.624;2023-11-21T09:12:07;1.63;;;0.30;;
24147;SDS011;12309;51.450;-2.624;2023-11-21T09:14:32;2.63;;;0.37;;
24147;SDS011;12309;51.450;-2.624;2023-11-21T09:16:58;0.60;;;0.20;;
24147;SDS011;12309;51.450;-2.624;2023-11-21T09:19:25;1.80;;;0.30;;
24147;SDS011;12309;51.450;-2.624;2023-11-21T09:21:51;4.53;;;0.20;;
24147;SDS011;12309;51.450;-2.624;2023-11-21T09:24:17;1.07;;;0.37;;
24147;SDS011;12309;51.450;-2.624;2023-11-21T09:26:43;0.57;;;0.20;;
24147;SDS011;12309;51.450;-2.624;2023-11-21T09:29:08;1.93;;;0.20;;
24147;SDS011;12309;51.450;-2.624;2023-11-21T09:31:34;1.47;;;0.20;;
24147;SDS011;12309;51.450;-2.624;2023-11-21T09:34:00;1.37;;;0.33;;
24147;SDS011;12309;51.450;-2.624;2023-11-21T09:36:27;1.13;;;0.20;;
24147;SDS011;12309;51.450;-2.624;2023-11-21T09:38:55;2.37;;;0.30;;
24147;SDS011;12309;51.450;-2.624;2023-11-21T09:41:32;6.57;;;0.40;;
24147;SDS011;12309;51.450;-2.624;2023-11-21T09:44:09;2.57;;;0.20;;
24147;SDS011;12309;51.450;-2.624;2023-11-21T09:46:39;1.17;;;0.20;;
24147;SDS011;12309;51.450;-2.624;2023-11-21T09:49:07;3.07;;;0.40;;
24147;SDS011;12309;51.450;-2.624;2023-11-21T09:51:38;1.80;;;0.30;;
24147;SDS011;12309;51.450;-2.624;2023-11-21T09:54:07;1.73;;;0.40;;
24147;SDS011;12309;51.450;-2.624;2023-11-21T09:56:35;1.13;;;0.53;;
24147;SDS011;12309;51.450;-2.624;2023-11-21T09:59:02;1.13;;;0.30;;
24147;SDS011;12309;51.450;-2.624;2023-11-21T10:01:31;1.83;;;0.30;;
24147;SDS011;12309;51.450;-2.624;2023-11-21T10:03:58;1.87;;;0.40;;
24147;SDS011;12309;51.450;-2.624;2023-11-21T10:06:24;0.80;;;0.20;;
24147;SDS011;12309;51.450;-2.624;2023-11-21T10:08:52;2.77;;;0.40;;
24147;SDS011;12309;51.450;-2.624;2023-11-21T10:11:19;3.03;;;0.60;;
24147;SDS011;12309;51.450;-2.624;2023-11-21T10:13:46;1.17;;;0.33;;
24147;SDS011;12309;51.450;-2.624;2023-11-21T10:16:15;2.10;;;0.53;;
24147;SDS011;12309;51.450;-2.624;2023-11-21T10:18:46;2.27;;;0.50;;
24147;SDS011;12309;51.450;-2.624;2023-11-21T10:21:17;3.13;;;0.60;;
24147;SDS011;12309;51.450;-2.624;2023-11-21T10:23:43;1.63;;;0.40;;
24147;SDS011;12309;51.450;-2.624;2023-11-21T10:26:10;1.93;;;0.60;;
24147;SDS011;12309;51.450;-2.624;2023-11-21T10:28:41;2.43;;;0.50;;
24147;SDS011;12309;51.450;-2.624;2023-11-21T10:31:20;1.33;;;0.53;;
24147;SDS011;12309;51.450;-2.624;2023-11-21T10:33:46;2.03;;;0.40;;
24147;SDS011;12309;51.450;-2.624;2023-11-21T10:36:12;1.70;;;0.50;;
24147;SDS011;12309;51.450;-2.624;2023-11-21T10:38:42;2.83;;;0.50;;
24147;SDS011;12309;51.450;-2.624;2023-11-21T10:41:10;2.13;;;0.47;;
24147;SDS011;12309;51.450;-2.624;2023-11-21T10:43:40;0.70;;;0.40;;
24147;SDS011;12309;51.450;-2.624;2023-11-21T10:46:06;2.00;;;0.57;;
24147;SDS011;12309;51.450;-2.624;2023-11-21T10:48:32;4.03;;;0.70;;
24147;SDS011;12309;51.450;-2.624;2023-11-21T10:51:00;2.17;;;0.67;;
24147;SDS011;12309;51.450;-2.624;2023-11-21T10:53:32;3.57;;;0.70;;
24147;SDS011;12309;51.450;-2.624;2023-11-21T10:56:05;2.17;;;0.50;;
24147;SDS011;12309;51.450;-2.624;2023-11-21T10:58:33;3.13;;;0.87;;
24147;SDS011;12309;51.450;-2.624;2023-11-21T11:01:02;1.70;;;0.67;;
24147;SDS011;12309;51.450;-2.624;2023-11-21T11:03:31;2.63;;;0.60;;
24147;SDS011;12309;51.450;-2.624;2023-11-21T11:05:58;3.93;;;1.00;;
24147;SDS011;12309;51.450;-2.624;2023-11-21T11:08:25;3.77;;;0.97;;
24147;SDS011;12309;51.450;-2.624;2023-11-21T11:10:52;6.00;;;0.90;;
24147;SDS011;12309;51.450;-2.624;2023-11-21T11:13:18;4.70;;;1.00;;
24147;SDS011;12309;51.450;-2.624;2023-11-21T11:15:47;4.60;;;0.93;;
24147;SDS011;12309;51.450;-2.624;2023-11-21T11:18:13;2.40;;;0.87;;
24147;SDS011;12309;51.450;-2.624;2023-11-21T11:20:39;4.60;;;0.93;;
24147;SDS011;12309;51.450;-2.624;2023-11-21T11:26:26;2.27;;;0.80;;
24147;SDS011;12309;51.450;-2.624;2023-11-21T11:29:14;3.30;;;0.90;;
24147;SDS011;12309;51.450;-2.624;2023-11-21T11:31:51;1.90;;;0.70;;
24147;SDS011;12309;51.450;-2.624;2023-11-21T11:34:48;5.10;;;0.80;;
24147;SDS011;12309;51.450;-2.624;2023-11-21T11:37:23;3.03;;;0.93;;
24147;SDS011;12309;51.450;-2.624;2023-11-21T11:39:49;1.20;;;0.70;;
24147;SDS011;12309;51.450;-2.624;2023-11-21T11:42:18;3.70;;;0.60;;
24147;SDS011;12309;51.450;-2.624;2023-11-21T11:47:15;2.87;;;0.80;;
24147;SDS011;12309;51.450;-2.624;2023-11-21T11:49:57;5.53;;;0.70;;
24147;SDS011;12309;51.450;-2.624;2023-11-21T11:52:43;2.73;;;0.77;;
24147;SDS011;12309;51.450;-2.624;2023-11-21T11:55:11;3.40;;;0.90;;
24147;SDS011;12309;51.450;-2.624;2023-11-21T11:57:41;4.57;;;0.70;;
24147;SDS011;12309;51.450;-2.624;2023-11-21T12:02:40;5.73;;;1.37;;
24147;SDS011;12309;51.450;-2.624;2023-11-21T12:05:09;3.37;;;0.90;;
24147;SDS011;12309;51.450;-2.624;2023-11-21T12:07:41;3.00;;;1.20;;
24147;SDS011;12309;51.450;-2.624;2023-11-21T12:10:12;3.17;;;1.00;;
24147;SDS011;12309;51.450;-2.624;2023-11-21T12:12:41;2.40;;;1.00;;
24147;SDS011;12309;51.450;-2.624;2023-11-21T12:15:09;6.60;;;1.10;;
24147;SDS011;12309;51.450;-2.624;2023-11-21T12:17:35;5.47;;;0.70;;
24147;SDS011;12309;51.450;-2.624;2023-11-21T12:20:02;1.60;;;0.70;;
24147;SDS011;12309;51.450;-2.624;2023-11-21T12:22:29;4.87;;;0.87;;
24147;SDS011;12309;51.450;-2.624;2023-11-21T12:24:56;3.40;;;0.80;;
24147;SDS011;12309;51.450;-2.624;2023-11-21T12:27:21;4.03;;;1.03;;
24147;SDS011;12309;51.450;-2.624;2023-11-21T12:29:47;6.37;;;1.13;;
24147;SDS011;12309;51.450;-2.624;2023-11-21T12:32:12;5.77;;;1.10;;
24147;SDS011;12309;51.450;-2.624;2023-11-21T12:34:42;4.47;;;1.30;;
24147;SDS011;12309;51.450;-2.624;2023-11-21T12:37:08;6.60;;;1.47;;
24147;SDS011;12309;51.450;-2.624;2023-11-21T12:39:35;5.93;;;1.00;;
24147;SDS011;12309;51.450;-2.624;2023-11-21T12:42:01;3.67;;;1.00;;
24147;SDS011;12309;51.450;-2.624;2023-11-21T12:44:27;4.93;;;0.90;;
24147;SDS011;12309;51.450;-2.624;2023-11-21T12:46:52;2.57;;;0.97;;
24147;SDS011;12309;51.450;-2.624;2023-11-21T12:49:18;4.80;;;1.20;;
24147;SDS011;12309;51.450;-2.624;2023-11-21T12:51:45;4.27;;;1.30;;
24147;SDS011;12309;51.450;-2.624;2023-11-21T12:54:11;2.97;;;1.03;;
24147;SDS011;12309;51.450;-2.624;2023-11-21T12:56:41;4.07;;;1.13;;
24147;SDS011;12309;51.450;-2.624;2023-11-21T12:59:06;2.70;;;0.90;;
24147;SDS011;12309;51.450;-2.624;2023-11-21T13:01:32;3.70;;;0.90;;
24147;SDS011;12309;51.450;-2.624;2023-11-21T13:03:59;3.65;;;1.38;;
24147;SDS011;12309;51.450;-2.624;2023-11-21T13:06:27;3.88;;;1.10;;
24147;SDS011;12309;51.450;-2.624;2023-11-21T13:08:54;11.30;;;1.45;;
24147;SDS011;12309;51.450;-2.624;2023-11-21T13:11:22;1.58;;;1.10;;
24147;SDS011;12309;51.450;-2.624;2023-11-21T13:13:47;3.75;;;1.00;;
24147;SDS011;12309;51.450;-2.624;2023-11-21T13:16:18;2.90;;;1.13;;
24147;SDS011;12309;51.450;-2.624;2023-11-21T13:18:45;4.63;;;0.80;;
24147;SDS011;12309;51.450;-2.624;2023-11-21T13:21:11;5.25;;;1.70;;
24147;SDS011;12309;51.450;-2.624;2023-11-21T13:23:42;4.47;;;1.00;;
24147;SDS011;12309;51.450;-2.624;2023-11-21T13:26:10;3.53;;;0.73;;
24147;SDS011;12309;51.450;-2.624;2023-11-21T13:28:37;5.55;;;0.90;;
24147;SDS011;12309;51.450;-2.624;2023-11-21T13:31:03;2.83;;;0.93;;
24147;SDS011;12309;51.450;-2.624;2023-11-21T13:33:56;6.38;;;1.30;;
24147;SDS011;12309;51.450;-2.624;2023-11-21T13:36:29;2.97;;;0.82;;
24147;SDS011;12309;51.450;-2.624;2023-11-21T13:38:58;3.33;;;1.02;;
24147;SDS011;12309;51.450;-2.624;2023-11-21T13:41:24;2.95;;;0.88;;
24147;SDS011;12309;51.450;-2.624;2023-11-21T13:43:56;3.77;;;0.87;;
24147;SDS011;12309;51.450;-2.624;2023-11-21T13:46:37;2.63;;;0.70;;
24147;SDS011;12309;51.450;-2.624;2023-11-21T13:49:03;3.30;;;1.10;;
24147;SDS011;12309;51.450;-2.624;2023-11-21T13:51:33;4.60;;;0.90;;
24147;SDS011;12309;51.450;-2.624;2023-11-21T13:54:09;2.47;;;0.90;;
24147;SDS011;12309;51.450;-2.624;2023-11-21T13:56:35;2.20;;;0.90;;
24147;SDS011;12309;51.450;-2.624;2023-11-21T13:59:02;1.63;;;0.70;;
24147;SDS011;12309;51.450;-2.624;2023-11-21T14:01:38;5.13;;;1.30;;
24147;SDS011;12309;51.450;-2.624;2023-11-21T14:04:23;2.23;;;0.70;;
24147;SDS011;12309;51.450;-2.624;2023-11-21T14:06:55;1.25;;;0.88;;
24147;SDS011;12309;51.450;-2.624;2023-11-21T14:09:21;1.93;;;0.90;;
24147;SDS011;12309;51.450;-2.624;2023-11-21T14:11:50;2.40;;;0.80;;
24147;SDS011;12309;51.450;-2.624;2023-11-21T14:14:22;5.67;;;1.00;;
24147;SDS011;12309;51.450;-2.624;2023-11-21T14:16:50;3.97;;;0.90;;
24147;SDS011;12309;51.450;-2.624;2023-11-21T14:19:16;1.27;;;0.60;;
24147;SDS011;12309;51.450;-2.624;2023-11-21T14:21:45;2.17;;;0.80;;
24147;SDS011;12309;51.450;-2.624;2023-11-21T14:24:12;4.10;;;0.77;;
24147;SDS011;12309;51.450;-2.624;2023-11-21T14:26:41;6.13;;;0.90;;
24147;SDS011;12309;51.450;-2.624;2023-11-21T14:29:08;4.77;;;0.90;;
24147;SDS011;12309;51.450;-2.624;2023-11-21T14:31:36;2.70;;;1.00;;
24147;SDS011;12309;51.450;-2.624;2023-11-21T14:34:01;2.55;;;0.85;;
24147;SDS011;12309;51.450;-2.624;2023-11-21T14:36:28;3.07;;;0.90;;
24147;SDS011;12309;51.450;-2.624;2023-11-21T14:38:53;5.50;;;0.90;;
24147;SDS011;12309;51.450;-2.624;2023-11-21T14:41:19;4.65;;;0.80;;
24147;SDS011;12309;51.450;-2.624;2023-11-21T14:43:45;3.80;;;1.08;;